Aérodrome :
LOGIN :

S'inscrire | Disclaimer

   EN    FR    IT 

 










Légende :    VFR   VFR Marginal   IFR   IFR Intensif   IFR Très Intensif
Visi : 
Plafond : 
>= 8 km
>= 3000ft
5 à 8 km
1000 à 3000 ft
1500m à 5 km
500 à 1000 ft
800 à 1500m
200 à 500 ft
< 800m
< 200 ft
Symboles :   Orages  Brouillard  Fortes neiges  Fortes précipitations  Vent > 20 kt
SIGMETs :   Divers  Orages  Givrage  Turbulence  Onde Orograph.  Cendres Volcan.






- Altitude de l'aérodrome : 479 ft
- Code IATA : DOL


LFRG - Deauville

DERNIER METAR :
  • 160800Z AUTO 05004KT 360V100 CAVOK 07/01 Q1029 NOSIG

METARs EXPIRÉS :
  • 160730Z AUTO 05004KT 330V090 CAVOK 05/00 Q1029 NOSIG
  • 160700Z AUTO 03003KT 350V080 CAVOK 04/01 Q1029 NOSIG
  • 160630Z AUTO 03003KT CAVOK 02/00 Q1029 NOSIG
  • 160600Z AUTO 01002KT 4500 BR NSC 00/M00 Q1028 BECMG 9999 NSW
  • 160530Z AUTO 06002KT 4200 BR NSC 00/M00 Q1028 BECMG 9999 NSW

TAF TAF LFRG
Valide du 16 à 06h jusqu'au 16 à 15h UTC


160500Z 1606/1615 VRB03KT 9999 SCT030
PROB30
TEMPO 1606/1607 3000 BR
BECMG 1608/1610 04010KT
PROB40
TEMPO 1613/1615 03015G25KT
ATIS : +33 2 31 65 65 36



MET'MAP, la Météo Aéronautique d'un coup d'oeil ! - Copyright ORBIFLY Décembre 2007 - Disclaimer

ORBIFLY MET'MAP TEAM :

Programmation & Développement : Alexandra Zaïnal
Sur une idée originale de : Baudouin d'Aumeries
Assistance à la programmation : Marc-Olivier Méhu
Soutien technique & logistique : Manuel Goepfert

Contact : metmap@orbifly.com




SOURCES & CREDITS :

   NOAA